Time;durP1;ratioP1;P1;durP2;ratioP2;P2;SDS_P1;SDS_P2;PMS_P1;PMS_P2;Temp;Humidity;BMP_temperature;BMP_pressure;BME280_temperature;BME280_humidity;BME280_pressure;Samples;Min_cycle;Max_cycle;Signal;HPM_P1;HPM_P2
2023/04/28 00:00:24;;;;;;;;;;;;;;;15.26;58.52;101603.75;5056063;28;19908;-83
2023/04/28 00:02:49;;;;;;;;;;;;;;;15.25;58.58;101603.66;5056478;28;20392;-84
2023/04/28 00:05:15;;;;;;;;;;;;;;;15.25;58.59;101599.28;5058947;28;20017;-84
2023/04/28 00:07:40;;;;;;;;;;;;;;;15.26;58.38;101601.09;5073545;28;20518;-83
2023/04/28 00:10:06;;;;;;;;;;;;;;;15.26;58.38;101589.66;5072687;28;19919;-84
2023/04/28 00:12:31;;;;;;;;;;;;;;;15.25;58.47;101596.66;5071529;28;19913;-83
2023/04/28 00:14:57;;;;;;;;;;;;;;;15.18;58.55;101597.19;5073090;28;20282;-83
2023/04/28 00:17:22;;;;;;;;;;;;;;;15.22;58.56;101595.63;5073340;28;19912;-84
2023/04/28 00:19:48;;;;;;;;;;;;;;;15.21;58.10;101594.69;5072796;28;20297;-84
2023/04/28 00:22:14;;;;;;;;;;;;;;;15.24;58.04;101596.59;5072578;28;19920;-84
2023/04/28 00:24:40;;;;;;;;;;;;;;;15.18;58.26;101591.94;5072258;28;19920;-84
2023/04/28 00:27:06;;;;;;;;;;;;;;;15.24;57.95;101588.72;5038584;28;19913;-84
2023/04/28 00:29:31;;;;;;;;;;;;;;;15.24;57.87;101583.44;5072743;28;19912;-83
2023/04/28 00:31:57;;;;;;;;;;;;;;;15.22;57.89;101582.47;5073053;28;20372;-83
2023/04/28 00:34:22;;;;;;;;;;;;;;;15.15;57.84;101593.50;5072991;28;20432;-84
2023/04/28 00:36:48;;;;;;;;;;;;;;;15.13;57.76;101588.16;5072941;28;20386;-84
2023/04/28 00:39:14;;;;;;;;;;;;;;;15.06;57.99;101588.72;5071253;28;19920;-83
2023/04/28 00:41:40;;;;;;;;;;;;;;;14.98;57.85;101588.31;5072130;28;19931;-84
2023/04/28 00:44:05;;;;;;;;;;;;;;;14.93;57.82;101594.19;5054305;28;19917;-83
2023/04/28 00:46:31;;;;;;;;;;;;;;;15.03;57.15;101591.19;5071442;28;20347;-85
2023/04/28 00:48:56;;;;;;;;;;;;;;;14.96;57.65;101594.34;5054539;28;20377;-85
2023/04/28 00:51:22;;;;;;;;;;;;;;;15.00;57.41;101589.28;5072548;28;20320;-84
2023/04/28 00:53:47;;;;;;;;;;;;;;;14.94;57.51;101591.63;5071289;28;20443;-85
2023/04/28 00:56:13;;;;;;;;;;;;;;;15.02;57.41;101589.38;5071169;28;20373;-83
2023/04/28 00:58:38;;;;;;;;;;;;;;;15.00;57.23;101598.94;5053595;28;19956;-83
2023/04/28 01:01:04;;;;;;;;;;;;;;;14.89;57.11;101597.50;5065087;28;19912;-83
2023/04/28 01:03:30;;;;;;;;;;;;;;;14.93;57.26;101612.59;5072262;28;19927;-85
2023/04/28 01:05:56;;;;;;;;;;;;;;;14.84;57.58;101611.31;5072346;28;19912;-83
2023/04/28 01:08:22;;;;;;;;;;;;;;;14.96;57.26;101613.66;5070651;28;19919;-83
2023/04/28 01:10:48;;;;;;;;;;;;;;;14.95;57.23;101618.84;5070969;28;20019;-83
2023/04/28 01:13:13;;;;;;;;;;;;;;;15.02;57.11;101613.06;5067211;28;19995;-83
2023/04/28 01:15:39;;;;;;;;;;;;;;;14.88;57.40;101620.28;5051063;28;20030;-83
2023/04/28 01:18:04;;;;;;;;;;;;;;;14.86;57.43;101627.19;5051201;28;19916;-82
2023/04/28 01:20:30;;;;;;;;;;;;;;;14.91;57.24;101624.78;5050539;28;19924;-83
2023/04/28 01:22:55;;;;;;;;;;;;;;;14.90;57.43;101629.16;5033809;28;20294;-83
2023/04/28 01:25:21;;;;;;;;;;;;;;;14.83;57.46;101624.38;5066615;28;20302;-84
2023/04/28 01:27:46;;;;;;;;;;;;;;;14.79;57.61;101614.53;5050668;28;19912;-84
2023/04/28 01:30:11;;;;;;;;;;;;;;;14.81;57.82;101618.16;5051867;28;20358;-84
2023/04/28 01:32:38;;;;;;;;;;;;;;;14.87;57.18;101613.19;5066875;28;19920;-84
2023/04/28 01:35:04;;;;;;;;;;;;;;;14.90;57.23;101610.75;5066954;28;19917;-83
2023/04/28 01:37:29;;;;;;;;;;;;;;;14.83;57.46;101617.38;5066979;28;20659;-83
2023/04/28 01:39:54;;;;;;;;;;;;;;;14.94;56.88;101612.66;5049884;28;19921;-83
2023/04/28 01:42:20;;;;;;;;;;;;;;;14.88;57.07;101617.66;5051484;28;19921;-84
2023/04/28 01:44:45;;;;;;;;;;;;;;;14.79;57.53;101623.31;5051569;28;19935;-84
2023/04/28 01:47:11;;;;;;;;;;;;;;;14.77;57.36;101617.06;5051435;28;19913;-84
2023/04/28 01:49:36;;;;;;;;;;;;;;;14.83;57.33;101620.03;5066673;28;19920;-84
2023/04/28 01:52:02;;;;;;;;;;;;;;;14.75;57.64;101618.75;5050130;28;20016;-84
2023/04/28 01:54:28;;;;;;;;;;;;;;;14.81;57.52;101623.41;5050169;28;19913;-82
2023/04/28 01:56:53;;;;;;;;;;;;;;;14.88;57.08;101622.91;5066328;28;19916;-83
2023/04/28 01:59:19;;;;;;;;;;;;;;;14.87;57.18;101623.72;5052030;28;20484;-84
2023/04/28 02:01:45;;;;;;;;;;;;;;;14.85;57.59;101628.00;5050402;28;19917;-83
2023/04/28 02:04:10;;;;;;;;;;;;;;;14.92;56.78;101632.75;5048334;28;19923;-83
2023/04/28 02:06:36;;;;;;;;;;;;;;;14.95;56.83;101637.25;5051016;28;19913;-84
2023/04/28 02:09:01;;;;;;;;;;;;;;;14.88;57.55;101625.53;5050824;28;19913;-83
2023/04/28 02:11:26;;;;;;;;;;;;;;;14.81;57.27;101634.81;5036603;28;20445;-84
2023/04/28 02:13:52;;;;;;;;;;;;;;;14.76;57.19;101638.97;5065277;28;19929;-83
2023/04/28 02:16:17;;;;;;;;;;;;;;;14.77;57.28;101624.97;5066340;28;20413;-84
2023/04/28 02:18:43;;;;;;;;;;;;;;;14.67;57.20;101625.34;5050959;28;19919;-85
2023/04/28 02:21:10;;;;;;;;;;;;;;;14.64;57.52;101631.31;5050980;28;19913;-85
2023/04/28 02:23:36;;;;;;;;;;;;;;;14.63;57.30;101632.16;5050425;28;20003;-85
2023/04/28 02:26:02;;;;;;;;;;;;;;;14.60;57.26;101639.88;5060039;28;19967;-84
2023/04/28 02:28:28;;;;;;;;;;;;;;;14.59;57.36;101631.94;5049690;28;20003;-84
2023/04/28 02:31:02;;;;;;;;;;;;;;;14.54;57.33;101634.31;5050698;28;20382;-83
2023/04/28 02:33:28;;;;;;;;;;;;;;;14.55;57.50;101638.75;5049473;28;19913;-82
2023/04/28 02:35:59;;;;;;;;;;;;;;;14.59;57.46;101639.81;5049624;28;19912;-83
2023/04/28 02:38:25;;;;;;;;;;;;;;;14.62;57.04;101645.22;5050658;28;19923;-83
2023/04/28 02:40:57;;;;;;;;;;;;;;;14.64;57.33;101647.09;5050332;28;20002;-83
2023/04/28 02:43:23;;;;;;;;;;;;;;;14.66;57.15;101652.44;5049514;28;19919;-83
2023/04/28 02:45:48;;;;;;;;;;;;;;;14.75;57.05;101658.19;5064668;28;20309;-84
2023/04/28 02:48:14;;;;;;;;;;;;;;;14.68;57.04;101655.16;5065857;28;19923;-83
2023/04/28 02:50:39;;;;;;;;;;;;;;;14.67;57.15;101659.53;5045487;28;20524;-84
2023/04/28 02:53:05;;;;;;;;;;;;;;;14.69;56.92;101663.13;5050768;28;20465;-84
2023/04/28 02:55:31;;;;;;;;;;;;;;;14.68;56.88;101666.56;5049641;28;19920;-83
2023/04/28 02:57:56;;;;;;;;;;;;;;;14.71;57.08;101660.56;5050253;28;19919;-83
2023/04/28 03:00:21;;;;;;;;;;;;;;;14.63;57.16;101660.19;5049930;28;19916;-84
2023/04/28 03:02:47;;;;;;;;;;;;;;;14.74;57.07;101669.53;5065116;28;20366;-83
2023/04/28 03:05:12;;;;;;;;;;;;;;;14.75;56.75;101673.97;5046131;28;20552;-85
2023/04/28 03:07:38;;;;;;;;;;;;;;;14.78;56.49;101675.84;5043763;28;19916;-84
2023/04/28 03:10:03;;;;;;;;;;;;;;;14.81;56.10;101676.00;5065581;28;19950;-82
2023/04/28 03:12:29;;;;;;;;;;;;;;;14.81;56.59;101681.25;5043868;28;19974;-82
2023/04/28 03:14:54;;;;;;;;;;;;;;;14.84;56.92;101684.06;5055158;28;19963;-83
2023/04/28 03:17:20;;;;;;;;;;;;;;;14.80;56.51;101684.72;5064410;28;20439;-83
2023/04/28 03:19:45;;;;;;;;;;;;;;;14.86;57.35;101685.94;5046732;28;19925;-84
2023/04/28 03:22:11;;;;;;;;;;;;;;;14.88;56.82;101685.09;5063673;28;19916;-83
2023/04/28 03:24:36;;;;;;;;;;;;;;;14.84;57.16;101689.31;5065953;28;20300;-83
2023/04/28 03:27:03;;;;;;;;;;;;;;;14.89;57.21;101690.44;5067404;28;20424;-83
2023/04/28 03:29:28;;;;;;;;;;;;;;;14.88;57.47;101696.53;5067417;28;19924;-84
2023/04/28 03:31:54;;;;;;;;;;;;;;;14.86;57.10;101700.81;5073119;28;19916;-81
2023/04/28 03:34:19;;;;;;;;;;;;;;;14.86;56.92;101706.97;5045642;28;20375;-81
2023/04/28 03:36:47;;;;;;;;;;;;;;;14.82;57.11;101712.00;5069560;28;19927;-82
2023/04/28 03:39:13;;;;;;;;;;;;;;;14.84;56.88;101718.25;5063601;28;19917;-83
2023/04/28 03:41:38;;;;;;;;;;;;;;;14.83;57.30;101721.69;5068808;28;19916;-82
2023/04/28 03:44:03;;;;;;;;;;;;;;;14.86;56.99;101719.22;5061769;28;19958;-81
2023/04/28 03:46:29;;;;;;;;;;;;;;;14.83;57.42;101725.22;5062543;28;20290;-82
2023/04/28 03:48:54;;;;;;;;;;;;;;;14.81;57.25;101724.22;5071278;28;20137;-82
2023/04/28 03:51:20;;;;;;;;;;;;;;;14.78;57.26;101726.72;5071820;28;19952;-83
2023/04/28 03:53:45;;;;;;;;;;;;;;;14.82;57.75;101727.78;5072271;28;20411;-83
2023/04/28 03:56:11;;;;;;;;;;;;;;;14.83;56.92;101721.69;5069871;28;19912;-83
2023/04/28 03:58:36;;;;;;;;;;;;;;;14.80;57.52;101732.94;5070564;28;20035;-83
2023/04/28 04:01:02;;;;;;;;;;;;;;;14.79;57.52;101732.88;5071475;28;20279;-82
2023/04/28 04:03:27;;;;;;;;;;;;;;;14.83;57.15;101729.56;5070576;28;20404;-83
2023/04/28 04:05:54;;;;;;;;;;;;;;;14.79;57.17;101738.13;5070382;28;19923;-83
2023/04/28 04:08:19;;;;;;;;;;;;;;;14.80;57.38;101730.31;5070269;28;19923;-83
2023/04/28 04:10:45;;;;;;;;;;;;;;;14.78;57.36;101747.75;5071417;28;19920;-82
2023/04/28 04:13:10;;;;;;;;;;;;;;;14.79;57.39;101744.28;5072756;28;19920;-83
2023/04/28 04:15:36;;;;;;;;;;;;;;;14.82;56.86;101748.81;5071790;28;20371;-82
2023/04/28 04:18:01;;;;;;;;;;;;;;;14.77;56.96;101745.91;5071711;28;20436;-82
2023/04/28 04:20:27;;;;;;;;;;;;;;;14.80;56.83;101747.84;5070854;28;20003;-82
2023/04/28 04:22:52;;;;;;;;;;;;;;;14.70;57.31;101754.31;5071810;28;20398;-82
2023/04/28 04:25:17;;;;;;;;;;;;;;;14.75;56.73;101747.59;5072497;28;20374;-84
2023/04/28 04:27:43;;;;;;;;;;;;;;;14.74;57.29;101744.88;5054248;28;20385;-83
2023/04/28 04:30:08;;;;;;;;;;;;;;;14.66;57.38;101747.09;5055957;28;19916;-84
2023/04/28 04:32:34;;;;;;;;;;;;;;;14.65;57.29;101748.81;5070965;28;20458;-84
2023/04/28 04:34:59;;;;;;;;;;;;;;;14.69;57.15;101749.91;5053680;28;19930;-84
2023/04/28 04:37:25;;;;;;;;;;;;;;;14.69;56.85;101752.53;5066641;28;20007;-83
2023/04/28 04:39:50;;;;;;;;;;;;;;;14.71;57.42;101750.88;5070626;28;20454;-83
2023/04/28 04:42:15;;;;;;;;;;;;;;;14.70;57.12;101750.78;5052368;28;19917;-83
2023/04/28 04:44:41;;;;;;;;;;;;;;;14.68;57.54;101752.44;5064148;28;19917;-84
2023/04/28 04:47:06;;;;;;;;;;;;;;;14.62;57.18;101751.28;5067005;28;20373;-82
2023/04/28 04:49:32;;;;;;;;;;;;;;;14.64;57.00;101757.50;5067202;28;20449;-82
2023/04/28 04:51:58;;;;;;;;;;;;;;;14.59;57.54;101759.00;5069551;28;19926;-83
2023/04/28 04:54:23;;;;;;;;;;;;;;;14.66;57.05;101762.88;5067419;28;20415;-84
2023/04/28 04:56:49;;;;;;;;;;;;;;;14.60;57.21;101759.91;5035309;28;19955;-83
2023/04/28 04:59:15;;;;;;;;;;;;;;;14.61;57.30;101770.50;5061476;28;19921;-84
2023/04/28 05:01:40;;;;;;;;;;;;;;;14.60;57.17;101763.44;5068666;28;20362;-83
2023/04/28 05:04:06;;;;;;;;;;;;;;;14.64;57.50;101778.53;5064592;28;19928;-81
2023/04/28 05:06:32;;;;;;;;;;;;;;;14.59;57.43;101771.25;5049681;28;19927;-82
2023/04/28 05:08:58;;;;;;;;;;;;;;;14.56;57.17;101772.00;5053068;28;19935;-82
2023/04/28 05:11:27;;;;;;;;;;;;;;;14.57;57.35;101768.53;5051464;28;19916;-83
2023/04/28 05:13:52;;;;;;;;;;;;;;;14.53;57.41;101773.53;5055330;28;19917;-82
2023/04/28 05:16:20;;;;;;;;;;;;;;;14.64;57.00;101780.28;5068863;28;19946;-83
2023/04/28 05:18:45;;;;;;;;;;;;;;;14.66;57.08;101776.91;5047254;28;20390;-82
2023/04/28 05:21:10;;;;;;;;;;;;;;;14.67;57.36;101777.84;5065100;28;20009;-83
2023/04/28 05:23:36;;;;;;;;;;;;;;;14.66;57.18;101779.53;5068468;28;20064;-82
2023/04/28 05:26:02;;;;;;;;;;;;;;;14.70;57.11;101787.59;5064574;28;20301;-84
2023/04/28 05:28:28;;;;;;;;;;;;;;;14.64;56.75;101789.06;5067316;28;19923;-84
2023/04/28 05:30:54;;;;;;;;;;;;;;;14.47;57.39;101795.09;5064584;28;19917;-84
2023/04/28 05:33:19;;;;;;;;;;;;;;;14.39;56.90;101792.09;5050304;28;19912;-84
2023/04/28 05:35:44;;;;;;;;;;;;;;;14.39;56.92;101799.97;5060614;28;19923;-84
2023/04/28 05:38:10;;;;;;;;;;;;;;;14.32;56.70;101796.91;5050548;28;19920;-85
2023/04/28 05:40:35;;;;;;;;;;;;;;;14.36;56.46;101793.63;5052495;28;20347;-84
2023/04/28 05:43:01;;;;;;;;;;;;;;;14.33;56.33;101788.19;5036606;28;19919;-84
2023/04/28 05:45:26;;;;;;;;;;;;;;;14.29;55.82;101792.38;5053712;28;19959;-84
2023/04/28 05:47:52;;;;;;;;;;;;;;;14.31;56.59;101795.06;5070436;28;20377;-83
2023/04/28 05:50:17;;;;;;;;;;;;;;;14.32;56.15;101799.53;5070283;28;20297;-84
2023/04/28 05:52:42;;;;;;;;;;;;;;;14.33;55.97;101796.06;5069661;28;20342;-83
2023/04/28 05:55:08;;;;;;;;;;;;;;;14.29;55.85;101799.34;5070829;28;20360;-83
2023/04/28 05:57:34;;;;;;;;;;;;;;;14.29;56.22;101805.53;5070670;28;20493;-84
2023/04/28 06:00:00;;;;;;;;;;;;;;;14.40;55.62;101803.50;5069385;28;19912;-84
2023/04/28 06:02:25;;;;;;;;;;;;;;;14.40;55.53;101807.00;5070768;28;19919;-83
2023/04/28 06:04:51;;;;;;;;;;;;;;;14.36;55.88;101804.13;5070172;28;19919;-84
2023/04/28 06:07:16;;;;;;;;;;;;;;;14.42;56.39;101801.84;5071207;28;20651;-84
2023/04/28 06:09:41;;;;;;;;;;;;;;;14.36;55.13;101805.03;5069712;28;20313;-84
2023/04/28 06:12:07;;;;;;;;;;;;;;;14.42;56.29;101805.38;5061166;28;19974;-85
2023/04/28 06:14:33;;;;;;;;;;;;;;;14.40;55.58;101811.38;5069257;28;19916;-85
2023/04/28 06:16:59;;;;;;;;;;;;;;;14.33;56.25;101803.94;5066503;28;19923;-83
2023/04/28 06:19:24;;;;;;;;;;;;;;;14.32;56.15;101802.16;5068333;28;19916;-84
2023/04/28 06:21:51;;;;;;;;;;;;;;;14.35;55.96;101807.56;5035363;28;20006;-84
2023/04/28 06:24:16;;;;;;;;;;;;;;;14.33;55.56;101798.69;5067949;28;19970;-82
2023/04/28 06:26:42;;;;;;;;;;;;;;;14.42;56.47;101799.22;5067182;28;20397;-85
2023/04/28 06:29:10;;;;;;;;;;;;;;;14.37;55.13;101803.31;5052153;28;20291;-84
2023/04/28 06:31:36;;;;;;;;;;;;;;;14.35;56.28;101799.69;5048265;28;19927;-84
2023/04/28 06:34:01;;;;;;;;;;;;;;;14.33;56.10;101807.50;5034427;28;19917;-84
2023/04/28 06:36:27;;;;;;;;;;;;;;;14.40;55.87;101801.75;5051001;28;19923;-85
2023/04/28 06:38:52;;;;;;;;;;;;;;;14.36;55.40;101804.13;5069605;28;20402;-84
2023/04/28 06:41:18;;;;;;;;;;;;;;;14.37;55.62;101795.41;5067997;28;19912;-86
2023/04/28 06:43:43;;;;;;;;;;;;;;;14.39;55.44;101799.03;5045882;28;19924;-84
2023/04/28 06:46:10;;;;;;;;;;;;;;;14.31;55.41;101797.69;5073999;28;19923;-84
2023/04/28 06:48:35;;;;;;;;;;;;;;;14.33;55.96;101796.06;5069874;28;19916;-85
2023/04/28 06:51:00;;;;;;;;;;;;;;;14.34;54.27;101814.56;5055551;28;19921;-84
2023/04/28 06:53:26;;;;;;;;;;;;;;;14.36;56.15;101802.41;5052001;28;19927;-84
2023/04/28 06:55:51;;;;;;;;;;;;;;;14.33;55.47;101798.69;5070045;28;19935;-84
2023/04/28 06:58:17;;;;;;;;;;;;;;;14.39;56.39;101797.34;5069965;28;20351;-83
2023/04/28 07:00:42;;;;;;;;;;;;;;;14.43;56.31;101791.44;5069213;28;19967;-83
2023/04/28 07:03:08;;;;;;;;;;;;;;;14.42;56.71;101800.13;5047065;28;19916;-82
2023/04/28 07:05:33;;;;;;;;;;;;;;;14.36;56.01;101796.25;5046642;28;19966;-82
2023/04/28 07:07:59;;;;;;;;;;;;;;;14.35;55.68;101797.06;5026724;28;19934;-83
2023/04/28 07:10:24;;;;;;;;;;;;;;;14.39;55.29;101794.72;5050762;28;19908;-83
2023/04/28 07:12:51;;;;;;;;;;;;;;;14.40;56.39;101790.34;5063826;28;19917;-83
2023/04/28 07:15:16;;;;;;;;;;;;;;;14.29;55.05;101787.13;5045260;28;20413;-84
2023/04/28 07:17:42;;;;;;;;;;;;;;;14.38;54.62;101777.13;5049288;28;20016;-82
2023/04/28 07:20:07;;;;;;;;;;;;;;;14.39;55.84;101778.00;5065089;28;20547;-82
2023/04/28 07:22:33;;;;;;;;;;;;;;;14.49;55.88;101779.44;5053841;28;19999;-84
2023/04/28 07:24:58;;;;;;;;;;;;;;;14.48;55.66;101781.16;5070259;28;19912;-84
2023/04/28 07:27:24;;;;;;;;;;;;;;;14.41;54.03;101786.88;5070719;28;20416;-84
2023/04/28 07:29:49;;;;;;;;;;;;;;;14.40;55.39;101783.34;5054664;28;20298;-84
2023/04/28 07:32:14;;;;;;;;;;;;;;;14.38;55.68;101779.75;5070676;28;20375;-85
2023/04/28 07:34:40;;;;;;;;;;;;;;;14.45;55.24;101780.97;5053883;28;19913;-83
2023/04/28 07:37:05;;;;;;;;;;;;;;;14.43;55.60;101773.03;5070528;28;20033;-83
2023/04/28 07:39:31;;;;;;;;;;;;;;;14.38;53.88;101781.47;5083590;28;20520;-83
2023/04/28 07:41:57;;;;;;;;;;;;;;;14.30;53.46;101778.41;5054711;28;19917;-84
2023/04/28 07:44:23;;;;;;;;;;;;;;;14.29;54.65;101786.19;5053601;28;19916;-84
2023/04/28 07:46:48;;;;;;;;;;;;;;;14.37;55.80;101779.66;5051169;28;19912;-84
2023/04/28 07:49:14;;;;;;;;;;;;;;;14.35;55.71;101776.97;5039767;28;19917;-85
2023/04/28 07:51:39;;;;;;;;;;;;;;;14.47;55.30;101781.97;5050882;28;20318;-84
2023/04/28 07:54:05;;;;;;;;;;;;;;;14.55;55.31;101777.13;5051716;28;20653;-85
2023/04/28 07:56:31;;;;;;;;;;;;;;;14.55;55.00;101777.13;5051920;28;20417;-83
2023/04/28 07:58:56;;;;;;;;;;;;;;;14.45;55.18;101773.09;5057246;28;20313;-84
2023/04/28 08:01:21;;;;;;;;;;;;;;;14.57;55.28;101772.91;5053682;28;19975;-84
2023/04/28 08:03:47;;;;;;;;;;;;;;;14.52;55.21;101771.69;5052064;28;20000;-84
2023/04/28 08:06:12;;;;;;;;;;;;;;;14.50;55.74;101776.91;5053283;28;19912;-82
2023/04/28 08:08:38;;;;;;;;;;;;;;;14.56;55.84;101781.59;5053964;28;19940;-83
2023/04/28 08:11:03;;;;;;;;;;;;;;;14.49;54.34;101774.16;5055312;28;19915;-84
2023/04/28 08:13:29;;;;;;;;;;;;;;;14.36;53.30;101781.38;5062600;28;20372;-82
2023/04/28 08:15:55;;;;;;;;;;;;;;;14.39;54.99;101770.13;5055687;28;19920;-84
2023/04/28 08:18:21;;;;;;;;;;;;;;;14.54;55.62;101763.09;5073648;28;19920;-83
2023/04/28 08:20:46;;;;;;;;;;;;;;;14.56;54.89;101761.50;5055615;28;19920;-83
2023/04/28 08:23:12;;;;;;;;;;;;;;;14.45;53.87;101763.47;5070515;28;19916;-84
2023/04/28 08:25:37;;;;;;;;;;;;;;;14.47;55.09;101763.56;5072285;28;19920;-83
2023/04/28 08:28:05;;;;;;;;;;;;;;;14.50;54.07;101752.31;5055168;28;19924;-84
2023/04/28 08:30:30;;;;;;;;;;;;;;;14.39;53.48;101757.00;5072826;28;19969;-84
2023/04/28 08:32:56;;;;;;;;;;;;;;;14.33;53.74;101749.69;5071816;28;19920;-84
2023/04/28 08:35:21;;;;;;;;;;;;;;;14.40;54.19;101753.56;5071344;28;19951;-84
2023/04/28 08:37:48;;;;;;;;;;;;;;;14.41;54.06;101751.03;5067717;28;19916;-83
2023/04/28 08:40:14;;;;;;;;;;;;;;;14.44;55.27;101743.28;5069414;28;20460;-84
2023/04/28 08:42:39;;;;;;;;;;;;;;;14.43;53.53;101746.75;5064430;28;20003;-83
2023/04/28 08:45:05;;;;;;;;;;;;;;;14.43;54.33;101738.88;5070877;28;19916;-84
2023/04/28 08:47:32;;;;;;;;;;;;;;;14.50;54.69;101737.47;5049155;28;20416;-85
2023/04/28 08:50:01;;;;;;;;;;;;;;;14.51;53.75;101738.38;5063358;28;19916;-84
2023/04/28 08:52:26;;;;;;;;;;;;;;;14.52;54.32;101745.41;5068904;28;19920;-83
2023/04/28 08:54:51;;;;;;;;;;;;;;;14.60;54.67;101742.41;5070285;28;19965;-83
2023/04/28 08:57:17;;;;;;;;;;;;;;;14.44;51.29;101737.13;5051239;28;20527;-83
2023/04/28 08:59:42;;;;;;;;;;;;;;;14.43;52.68;101741.50;5067385;28;20447;-84
2023/04/28 09:02:08;;;;;;;;;;;;;;;14.46;54.33;101736.38;5052944;28;20396;-84
2023/04/28 09:04:34;;;;;;;;;;;;;;;14.54;53.67;101726.31;5033151;28;20011;-84
2023/04/28 09:06:59;;;;;;;;;;;;;;;14.56;53.98;101732.56;5047950;28;20432;-84
2023/04/28 09:09:25;;;;;;;;;;;;;;;14.46;53.91;101736.38;5067942;28;19923;-84
2023/04/28 09:11:55;;;;;;;;;;;;;;;14.57;53.77;101725.59;5074235;28;19928;-84
2023/04/28 09:14:21;;;;;;;;;;;;;;;14.52;52.08;101727.94;5068949;28;19923;-84
2023/04/28 09:16:47;;;;;;;;;;;;;;;14.44;52.02;101729.25;5067439;28;20313;-83
2023/04/28 09:19:13;;;;;;;;;;;;;;;14.38;50.20;101731.53;5069070;28;19916;-84
2023/04/28 09:21:52;;;;;;;;;;;;;;;14.45;52.61;101729.31;5049771;28;19977;-84
2023/04/28 09:24:30;;;;;;;;;;;;;;;14.44;51.94;101724.88;5068089;28;20011;-83
2023/04/28 09:26:56;;;;;;;;;;;;;;;14.56;52.74;101729.94;5048923;28;20663;-83
2023/04/28 09:29:21;;;;;;;;;;;;;;;14.69;53.10;101726.25;5050663;28;19949;-84
2023/04/28 09:31:47;;;;;;;;;;;;;;;14.72;53.82;101728.13;5050905;28;19954;-86
2023/04/28 09:34:12;;;;;;;;;;;;;;;14.65;53.59;101737.41;5047891;28;19962;-84
2023/04/28 09:36:38;;;;;;;;;;;;;;;14.72;53.74;101723.75;5070177;28;19916;-84
2023/04/28 09:39:03;;;;;;;;;;;;;;;14.69;53.98;101718.34;5071360;28;19913;-85
2023/04/28 09:41:39;;;;;;;;;;;;;;;14.59;52.28;101729.19;5070472;28;19912;-83
2023/04/28 09:44:14;;;;;;;;;;;;;;;14.59;52.50;101727.47;5068770;28;19999;-84
2023/04/28 09:46:39;;;;;;;;;;;;;;;14.63;52.84;101725.91;5071366;28;19959;-84
2023/04/28 09:49:05;;;;;;;;;;;;;;;14.66;51.67;101718.16;5070518;28;19944;-84
2023/04/28 09:51:31;;;;;;;;;;;;;;;14.66;53.39;101711.19;5070770;28;20011;-84
2023/04/28 09:53:58;;;;;;;;;;;;;;;14.66;53.64;101713.81;5070640;28;19912;-84
2023/04/28 09:56:24;;;;;;;;;;;;;;;14.58;51.76;101712.53;5071833;28;19940;-84
2023/04/28 09:58:49;;;;;;;;;;;;;;;14.60;51.33;101723.09;5069921;28;19985;-83
2023/04/28 10:01:15;;;;;;;;;;;;;;;14.60;51.39;101708.22;5069710;28;19912;-83
2023/04/28 10:03:40;;;;;;;;;;;;;;;14.56;50.79;101706.28;5066854;28;19923;-84
2023/04/28 10:06:07;;;;;;;;;;;;;;;14.64;52.67;101704.03;5050207;28;19916;-84
2023/04/28 10:08:33;;;;;;;;;;;;;;;14.48;49.72;101714.53;5066058;28;19946;-84
2023/04/28 10:10:58;;;;;;;;;;;;;;;14.54;51.01;101704.34;5063070;28;19916;-84
2023/04/28 10:13:24;;;;;;;;;;;;;;;14.68;52.38;101700.75;5038258;28;19927;-84
2023/04/28 10:15:49;;;;;;;;;;;;;;;14.70;52.79;101701.75;5044810;28;20422;-84
2023/04/28 10:18:15;;;;;;;;;;;;;;;14.77;53.65;101702.94;5064474;28;21240;-85
2023/04/28 10:20:44;;;;;;;;;;;;;;;14.73;53.07;101708.88;5068672;28;19920;-84
2023/04/28 10:23:29;;;;;;;;;;;;;;;14.69;52.63;101714.78;5042487;28;19917;-84
2023/04/28 10:25:58;;;;;;;;;;;;;;;14.60;51.60;101715.22;5067340;28;19922;-84
2023/04/28 10:28:25;;;;;;;;;;;;;;;14.58;50.75;101703.72;5044632;28;19920;-84
2023/04/28 10:31:23;;;;;;;;;;;;;;;14.61;51.29;101707.41;5045267;28;19912;-84
2023/04/28 10:33:49;;;;;;;;;;;;;;;14.68;51.87;101702.50;5056152;28;19922;-85
2023/04/28 10:36:34;;;;;;;;;;;;;;;14.73;52.33;101686.13;5066547;28;19924;-85
2023/04/28 10:39:10;;;;;;;;;;;;;;;14.78;50.46;101695.16;5048019;28;19987;-85
2023/04/28 10:41:36;;;;;;;;;;;;;;;14.69;52.49;101706.91;5042751;28;19916;-86
2023/04/28 10:44:24;;;;;;;;;;;;;;;14.68;51.38;101695.50;5065948;28;19920;-86
2023/04/28 10:47:08;;;;;;;;;;;;;;;14.71;51.40;101687.78;5025213;28;19923;-84
2023/04/28 10:50:06;;;;;;;;;;;;;;;14.80;52.03;101683.00;5047714;28;20449;-83
2023/04/28 10:52:32;;;;;;;;;;;;;;;14.79;52.03;101696.94;5032627;28;20060;-86
2023/04/28 10:55:16;;;;;;;;;;;;;;;14.76;52.36;101694.16;5067910;28;19946;-85
2023/04/28 10:57:41;;;;;;;;;;;;;;;14.89;52.50;101679.03;5059623;28;19925;-84
2023/04/28 11:00:26;;;;;;;;;;;;;;;14.92;51.62;101690.63;5075186;28;19919;-86
2023/04/28 11:02:53;;;;;;;;;;;;;;;14.85;51.46;101686.75;5040316;28;19966;-83
2023/04/28 11:05:20;;;;;;;;;;;;;;;14.89;52.15;101690.44;5073324;28;19944;-85
2023/04/28 11:08:04;;;;;;;;;;;;;;;14.93;52.96;101702.94;5074063;28;19912;-84
2023/04/28 11:10:52;;;;;;;;;;;;;;;14.98;53.27;101692.63;5074515;28;19930;-85
2023/04/28 11:13:25;;;;;;;;;;;;;;;14.99;52.98;101699.72;5065659;28;19917;-85
2023/04/28 11:16:01;;;;;;;;;;;;;;;14.97;52.75;101691.75;5074188;28;19919;-85
2023/04/28 11:18:26;;;;;;;;;;;;;;;14.94;52.04;101699.47;5082992;28;20378;-84
2023/04/28 11:20:52;;;;;;;;;;;;;;;14.87;52.92;101713.13;5072679;28;19962;-85
2023/04/28 11:23:18;;;;;;;;;;;;;;;14.99;52.14;101692.72;5056153;28;20371;-85
2023/04/28 11:25:53;;;;;;;;;;;;;;;15.01;53.04;101696.34;5072406;28;19919;-84
2023/04/28 11:28:18;;;;;;;;;;;;;;;15.05;54.14;101698.28;5074197;28;20297;-84
2023/04/28 11:30:44;;;;;;;;;;;;;;;15.01;52.63;101692.81;5071180;28;19912;-84
2023/04/28 11:33:09;;;;;;;;;;;;;;;14.93;52.74;101697.66;5068622;28;20382;-84
2023/04/28 11:35:41;;;;;;;;;;;;;;;15.03;52.60;101699.06;5072915;28;20278;-83
2023/04/28 11:38:06;;;;;;;;;;;;;;;15.07;52.85;101691.38;5054978;28;20369;-85
2023/04/28 11:40:32;;;;;;;;;;;;;;;15.12;52.50;101696.88;5073005;28;19942;-85
2023/04/28 11:43:02;;;;;;;;;;;;;;;15.12;53.20;101693.34;5072565;28;20660;-85
2023/04/28 11:45:28;;;;;;;;;;;;;;;15.07;53.15;101691.38;5072416;28;20420;-85
2023/04/28 11:47:53;;;;;;;;;;;;;;;15.05;52.45;101687.78;5071268;28;19947;-85
2023/04/28 11:50:48;;;;;;;;;;;;;;;14.89;52.64;101672.03;5072504;28;19965;-85
2023/04/28 11:53:13;;;;;;;;;;;;;;;15.10;53.79;101687.09;5054786;28;19912;-85
2023/04/28 11:55:39;;;;;;;;;;;;;;;15.15;54.22;101683.84;5071370;28;19918;-85
2023/04/28 11:58:23;;;;;;;;;;;;;;;15.20;54.18;101681.47;5071619;28;20366;-85
2023/04/28 12:01:08;;;;;;;;;;;;;;;15.18;54.22;101684.03;5058575;28;20419;-85
2023/04/28 12:03:54;;;;;;;;;;;;;;;15.22;53.75;101675.47;5071067;28;20007;-85
2023/04/28 12:06:19;;;;;;;;;;;;;;;15.23;53.77;101671.09;5072034;28;19919;-86
2023/04/28 12:08:45;;;;;;;;;;;;;;;15.21;53.31;101676.28;5071511;28;19912;-85
2023/04/28 12:11:13;;;;;;;;;;;;;;;15.22;54.11;101680.72;5068546;28;19916;-85
2023/04/28 12:13:39;;;;;;;;;;;;;;;15.21;53.20;101667.47;5071398;28;19916;-85
2023/04/28 12:16:05;;;;;;;;;;;;;;;15.23;53.55;101669.34;5051371;28;19978;-85
2023/04/28 12:18:35;;;;;;;;;;;;;;;15.23;54.22;101671.09;5068396;28;19922;-85
2023/04/28 12:21:00;;;;;;;;;;;;;;;15.29;54.83;101667.88;5068142;28;19995;-85
2023/04/28 12:23:35;;;;;;;;;;;;;;;15.32;53.76;101655.75;5052216;28;20424;-86
2023/04/28 12:26:01;;;;;;;;;;;;;;;15.24;53.70;101668.56;5053326;28;19932;-85
2023/04/28 12:28:39;;;;;;;;;;;;;;;15.26;52.41;101672.16;5051831;28;19942;-85
2023/04/28 12:31:05;;;;;;;;;;;;;;;15.32;52.95;101668.00;5051613;28;19908;-85
2023/04/28 12:33:36;;;;;;;;;;;;;;;15.33;53.41;101664.56;5068526;28;19966;-85